createdAt,value
2017-09-06T00:00:07.795Z,4.07
2017-09-06T00:02:36.145Z,4.43
2017-09-06T00:05:04.530Z,6.00
2017-09-06T00:07:32.870Z,4.20
2017-09-06T00:10:01.246Z,7.17
2017-09-06T00:12:29.815Z,3.53
2017-09-06T00:14:59.822Z,4.20
2017-09-06T00:17:28.196Z,5.20
2017-09-06T00:19:56.567Z,4.40
2017-09-06T00:22:24.923Z,3.70
2017-09-06T00:24:53.388Z,4.90
2017-09-06T00:27:21.756Z,4.00
2017-09-06T00:29:50.109Z,4.43
2017-09-06T00:32:19.440Z,6.90
2017-09-06T00:34:47.874Z,3.90
2017-09-06T00:37:16.254Z,3.47
2017-09-06T00:39:45.123Z,4.93
2017-09-06T00:42:13.486Z,3.63
2017-09-06T00:44:41.926Z,6.30
2017-09-06T00:47:10.283Z,3.37
2017-09-06T00:49:38.695Z,3.60
2017-09-06T00:52:07.110Z,4.53
2017-09-06T00:54:35.740Z,4.97
2017-09-06T00:57:03.719Z,4.80
2017-09-06T00:59:31.620Z,4.63
2017-09-06T01:01:59.978Z,3.93
2017-09-06T01:04:28.362Z,5.87
2017-09-06T01:06:56.732Z,4.63
2017-09-06T01:09:25.106Z,3.40
2017-09-06T01:11:56.835Z,6.10
2017-09-06T01:14:24.897Z,3.60
2017-09-06T01:16:53.274Z,3.50
2017-09-06T01:19:21.753Z,3.27
2017-09-06T01:21:49.719Z,3.13
2017-09-06T01:24:17.807Z,4.23
2017-09-06T01:26:46.171Z,4.30
2017-09-06T01:29:14.513Z,4.00
2017-09-06T01:31:42.881Z,3.77
2017-09-06T01:34:11.702Z,4.33
2017-09-06T01:36:40.392Z,3.10
2017-09-06T01:39:08.738Z,2.60
2017-09-06T01:41:37.135Z,2.50
2017-09-06T01:44:05.504Z,2.57
2017-09-06T01:46:33.862Z,3.10
2017-09-06T01:49:03.185Z,3.33
2017-09-06T01:51:31.545Z,6.50
2017-09-06T01:53:59.982Z,4.60
2017-09-06T01:56:28.138Z,3.70
2017-09-06T01:58:56.496Z,3.53
2017-09-06T02:01:25.081Z,2.70
2017-09-06T02:03:53.095Z,2.73
2017-09-06T02:06:20.791Z,3.43
2017-09-06T02:08:49.066Z,2.80
2017-09-06T02:11:17.423Z,2.50
2017-09-06T02:13:45.821Z,4.40
2017-09-06T02:16:14.159Z,2.70
2017-09-06T02:18:42.506Z,3.17
2017-09-06T02:21:10.948Z,2.67
2017-09-06T02:23:39.295Z,3.00
2017-09-06T02:26:07.663Z,3.07
2017-09-06T02:28:36.996Z,2.73
2017-09-06T02:31:05.577Z,3.07
2017-09-06T02:33:33.930Z,2.50
2017-09-06T02:36:02.318Z,3.10
2017-09-06T02:38:30.694Z,2.70
2017-09-06T02:40:59.057Z,2.30
2017-09-06T02:43:27.435Z,2.40
2017-09-06T02:45:55.111Z,3.03
2017-09-06T02:48:23.460Z,3.83
2017-09-06T02:50:52.257Z,2.30
2017-09-06T02:53:20.654Z,2.40
2017-09-06T02:55:48.557Z,2.93
2017-09-06T02:58:16.918Z,2.43
2017-09-06T03:00:45.269Z,2.47
2017-09-06T03:03:13.636Z,3.20
2017-09-06T03:05:42.004Z,5.43
2017-09-06T03:08:10.354Z,4.67
2017-09-06T03:10:38.724Z,3.40
2017-09-06T03:13:06.952Z,5.07
2017-09-06T03:15:35.790Z,3.00
2017-09-06T03:18:04.158Z,3.43
2017-09-06T03:20:32.523Z,4.43
2017-09-06T03:23:00.881Z,2.97
2017-09-06T03:25:29.541Z,3.27
2017-09-06T03:27:57.887Z,5.00
2017-09-06T03:30:26.255Z,4.40
2017-09-06T03:32:54.894Z,3.67
2017-09-06T03:35:23.894Z,3.10
2017-09-06T03:37:52.254Z,3.70
2017-09-06T03:40:20.626Z,4.27
2017-09-06T03:42:48.990Z,3.57
2017-09-06T03:45:18.122Z,4.50
2017-09-06T03:47:46.505Z,4.07
2017-09-06T03:50:15.636Z,4.93
2017-09-06T03:52:43.981Z,4.90
2017-09-06T03:55:12.350Z,4.93
2017-09-06T03:57:40.722Z,3.33
2017-09-06T04:00:09.092Z,5.20
2017-09-06T04:02:37.442Z,3.93
2017-09-06T04:05:05.791Z,4.37
2017-09-06T04:07:34.158Z,4.10
2017-09-06T04:10:03.284Z,4.50
2017-09-06T04:12:31.645Z,6.17
2017-09-06T04:14:59.999Z,4.23
2017-09-06T04:17:28.471Z,4.00
2017-09-06T04:19:56.826Z,4.27
2017-09-06T04:22:25.182Z,6.40
2017-09-06T04:24:53.668Z,4.67
2017-09-06T04:27:22.218Z,4.20
2017-09-06T04:29:50.652Z,4.03
2017-09-06T04:32:19.128Z,3.63
2017-09-06T04:34:47.483Z,7.57
2017-09-06T04:37:15.838Z,4.53
2017-09-06T04:39:44.220Z,3.77
2017-09-06T04:42:12.605Z,4.10
2017-09-06T04:44:41.007Z,4.40
2017-09-06T04:47:09.368Z,4.30
2017-09-06T04:49:37.957Z,4.20
2017-09-06T04:52:06.386Z,4.20
2017-09-06T04:54:34.767Z,5.43
2017-09-06T04:57:03.789Z,5.13
2017-09-06T04:59:32.367Z,5.33
2017-09-06T05:02:00.710Z,6.27
2017-09-06T05:04:29.078Z,5.70
2017-09-06T05:06:57.444Z,5.20
2017-09-06T05:09:25.814Z,7.57
2017-09-06T05:11:54.161Z,5.50
2017-09-06T05:14:22.516Z,5.43
2017-09-06T05:16:50.869Z,5.67
2017-09-06T05:19:19.442Z,6.80
2017-09-06T05:21:47.817Z,6.83
2017-09-06T05:24:16.195Z,9.10
2017-09-06T05:26:44.538Z,9.23
2017-09-06T05:29:12.900Z,6.23
2017-09-06T05:31:41.255Z,7.10
2017-09-06T05:34:09.609Z,8.77
2017-09-06T05:36:38.170Z,7.07
2017-09-06T05:39:06.555Z,9.63
2017-09-06T05:41:34.929Z,13.50
2017-09-06T05:44:03.286Z,10.30
2017-09-06T05:46:31.647Z,9.90
2017-09-06T05:49:00.898Z,8.93
2017-09-06T05:51:29.312Z,9.87
2017-09-06T05:53:57.727Z,8.40
2017-09-06T05:56:26.070Z,8.90
2017-09-06T05:58:54.456Z,12.90
2017-09-06T06:01:22.641Z,8.77
2017-09-06T06:03:50.991Z,7.87
2017-09-06T06:06:19.364Z,7.53
2017-09-06T06:08:47.782Z,8.60
2017-09-06T06:11:16.162Z,7.83
2017-09-06T06:13:44.536Z,9.07
2017-09-06T06:16:12.915Z,11.07
2017-09-06T06:18:41.386Z,8.37
2017-09-06T06:21:09.772Z,7.73
2017-09-06T06:23:38.445Z,9.77
2017-09-06T06:26:06.870Z,6.97
2017-09-06T06:28:35.536Z,7.70
2017-09-06T06:31:04.108Z,7.33
2017-09-06T06:33:32.718Z,7.23
2017-09-06T06:36:01.100Z,7.03
2017-09-06T06:38:29.454Z,7.63
2017-09-06T06:40:57.824Z,7.67
2017-09-06T06:43:26.202Z,7.23
2017-09-06T06:45:54.584Z,8.20
2017-09-06T06:48:23.779Z,7.90
2017-09-06T06:50:52.186Z,8.80
2017-09-06T06:53:20.695Z,8.17
2017-09-06T06:55:49.069Z,9.67
2017-09-06T06:58:17.469Z,8.70
2017-09-06T07:00:45.929Z,9.07
2017-09-06T07:03:14.367Z,6.83
2017-09-06T07:05:42.779Z,10.87
2017-09-06T07:08:11.204Z,6.07
2017-09-06T07:10:39.561Z,6.23
2017-09-06T07:13:07.942Z,5.13
2017-09-06T07:15:36.310Z,7.13
2017-09-06T07:18:04.479Z,4.20
2017-09-06T07:20:32.855Z,3.93
2017-09-06T07:23:01.221Z,4.50
2017-09-06T07:25:29.689Z,3.93
2017-09-06T07:27:58.031Z,3.80
2017-09-06T07:30:27.165Z,3.13
2017-09-06T07:32:55.741Z,7.77
2017-09-06T07:35:24.423Z,3.40
2017-09-06T07:37:52.775Z,5.90
2017-09-06T07:40:21.133Z,3.27
2017-09-06T07:42:49.604Z,7.43
2017-09-06T07:45:17.964Z,3.87
2017-09-06T07:47:46.251Z,8.60
2017-09-06T07:50:14.595Z,5.50
2017-09-06T07:52:43.000Z,5.60
2017-09-06T07:55:11.401Z,7.40
2017-09-06T07:57:40.764Z,8.33
2017-09-06T08:00:09.118Z,9.63
2017-09-06T08:02:37.486Z,6.33
2017-09-06T08:05:06.125Z,8.53
2017-09-06T08:07:35.172Z,7.10
2017-09-06T08:10:03.529Z,9.80
2017-09-06T08:12:31.911Z,7.17
2017-09-06T08:15:00.384Z,7.23
2017-09-06T08:17:28.730Z,10.13
2017-09-06T08:19:57.399Z,10.87
2017-09-06T08:22:25.774Z,9.10
2017-09-06T08:24:54.171Z,12.57
2017-09-06T08:27:22.527Z,13.07
2017-09-06T08:29:51.687Z,13.10
2017-09-06T08:32:20.064Z,15.00
2017-09-06T08:34:48.428Z,13.27
2017-09-06T08:37:16.827Z,11.40
2017-09-06T08:39:45.375Z,16.70
2017-09-06T08:42:13.785Z,11.83
2017-09-06T08:44:42.135Z,10.77
2017-09-06T08:47:10.536Z,10.63
2017-09-06T08:49:39.132Z,11.20
2017-09-06T08:52:07.511Z,16.27
2017-09-06T08:54:35.884Z,11.20
2017-09-06T08:57:04.242Z,12.60
2017-09-06T08:59:32.979Z,9.20
2017-09-06T09:02:01.341Z,10.90
2017-09-06T09:04:29.713Z,9.30
2017-09-06T09:06:58.090Z,9.70
2017-09-06T09:09:26.450Z,9.77
2017-09-06T09:11:54.848Z,11.23
2017-09-06T09:14:23.245Z,8.57
2017-09-06T09:16:51.606Z,10.70
2017-09-06T09:19:20.101Z,9.63
2017-09-06T09:21:48.458Z,17.33
2017-09-06T09:24:17.043Z,7.67
2017-09-06T09:26:45.541Z,10.00
2017-09-06T09:29:13.915Z,5.80
2017-09-06T09:31:42.295Z,4.60
2017-09-06T09:34:10.769Z,7.33
2017-09-06T09:36:39.121Z,6.80
2017-09-06T09:39:07.492Z,10.90
2017-09-06T09:41:35.842Z,7.20
2017-09-06T09:44:04.199Z,8.73
2017-09-06T09:46:32.578Z,13.90
2017-09-06T09:49:00.945Z,6.30
2017-09-06T09:51:29.312Z,5.30
2017-09-06T09:53:57.810Z,8.00
2017-09-06T09:56:26.357Z,3.87
2017-09-06T09:58:54.719Z,13.63
2017-09-06T10:01:23.108Z,6.57
2017-09-06T10:03:51.468Z,5.30
2017-09-06T10:06:19.838Z,7.27
2017-09-06T10:08:48.266Z,5.13
2017-09-06T10:11:16.611Z,11.87
2017-09-06T10:13:45.058Z,6.10
2017-09-06T10:16:14.291Z,13.20
2017-09-06T10:18:42.878Z,9.57
2017-09-06T10:21:10.981Z,8.80
2017-09-06T10:23:39.368Z,5.13
2017-09-06T10:26:07.730Z,7.97
2017-09-06T10:28:36.120Z,8.13
2017-09-06T10:31:04.645Z,6.13
2017-09-06T10:33:33.016Z,8.83
2017-09-06T10:36:01.359Z,10.70
2017-09-06T10:38:29.743Z,12.03
2017-09-06T10:40:58.255Z,15.70
2017-09-06T10:43:26.770Z,10.63
2017-09-06T10:45:55.316Z,13.30
2017-09-06T10:48:23.993Z,7.43
2017-09-06T10:50:52.345Z,8.80
2017-09-06T10:53:20.698Z,8.37
2017-09-06T10:55:49.055Z,7.37
2017-09-06T10:58:17.464Z,8.27
2017-09-06T11:00:45.820Z,7.10
2017-09-06T11:03:14.434Z,8.90
2017-09-06T11:05:42.809Z,14.60
2017-09-06T11:08:11.171Z,7.23
2017-09-06T11:10:40.149Z,8.97
2017-09-06T11:13:08.523Z,13.10
2017-09-06T11:15:37.082Z,6.63
2017-09-06T11:18:05.479Z,7.63
2017-09-06T11:20:33.829Z,9.93
2017-09-06T11:23:02.193Z,13.10
2017-09-06T11:25:30.547Z,12.03
2017-09-06T11:27:58.914Z,10.83
2017-09-06T11:30:27.285Z,10.93
2017-09-06T11:32:55.684Z,9.53
2017-09-06T11:35:24.055Z,11.60
2017-09-06T11:37:52.532Z,8.90
2017-09-06T11:40:20.889Z,9.40
2017-09-06T11:42:49.287Z,12.20
2017-09-06T11:45:18.282Z,12.20
2017-09-06T11:47:46.757Z,11.03
2017-09-06T11:50:15.114Z,11.03
2017-09-06T11:52:43.537Z,10.20
2017-09-06T11:55:11.903Z,8.23
2017-09-06T11:57:40.283Z,15.33
2017-09-06T12:00:08.662Z,6.07
2017-09-06T12:02:37.051Z,9.30
2017-09-06T12:05:06.184Z,9.60
2017-09-06T12:07:34.377Z,7.97
2017-09-06T12:10:03.321Z,10.43
2017-09-06T12:12:31.517Z,11.63
2017-09-06T12:14:59.901Z,14.10
2017-09-06T12:17:28.285Z,11.90
2017-09-06T12:19:56.673Z,10.27
2017-09-06T12:22:25.064Z,9.20
2017-09-06T12:24:53.442Z,5.97
2017-09-06T12:27:22.009Z,6.80
2017-09-06T12:29:50.379Z,10.77
2017-09-06T12:32:18.734Z,11.30
2017-09-06T12:34:47.586Z,11.60
2017-09-06T12:37:16.198Z,9.93
2017-09-06T12:39:45.415Z,7.60
2017-09-06T12:42:13.789Z,9.77
2017-09-06T12:44:42.133Z,8.30
2017-09-06T12:47:10.499Z,13.53
2017-09-06T12:49:39.065Z,7.90
2017-09-06T12:52:07.504Z,12.17
2017-09-06T12:54:35.856Z,9.83
2017-09-06T12:57:04.249Z,11.63
2017-09-06T12:59:32.609Z,8.27
2017-09-06T13:02:00.971Z,12.13
2017-09-06T13:04:29.336Z,8.10
2017-09-06T13:06:57.693Z,9.80
2017-09-06T13:09:27.475Z,11.80
2017-09-06T13:11:55.847Z,8.83
2017-09-06T13:14:24.208Z,7.13
2017-09-06T13:16:52.567Z,6.40
2017-09-06T13:19:20.969Z,21.13
2017-09-06T13:21:49.344Z,9.93
2017-09-06T13:24:17.699Z,7.93
2017-09-06T13:26:46.126Z,8.73
2017-09-06T13:29:14.509Z,11.20
2017-09-06T13:31:43.034Z,9.37
2017-09-06T13:34:11.204Z,9.50
2017-09-06T13:36:39.574Z,8.97
2017-09-06T13:39:07.972Z,8.30
2017-09-06T13:41:36.329Z,10.97
2017-09-06T13:44:04.685Z,8.13
2017-09-06T13:46:33.062Z,10.07
2017-09-06T13:49:03.210Z,10.80
2017-09-06T13:51:31.580Z,13.90
2017-09-06T13:54:00.173Z,10.53
2017-09-06T13:56:28.533Z,13.20
2017-09-06T13:58:57.035Z,15.33
2017-09-06T14:01:25.411Z,13.87
2017-09-06T14:03:53.762Z,14.20
2017-09-06T14:06:22.912Z,10.87
2017-09-06T14:08:51.290Z,11.70
2017-09-06T14:11:19.657Z,11.87
2017-09-06T14:13:48.029Z,16.77
2017-09-06T14:16:16.430Z,14.50
2017-09-06T14:18:44.853Z,10.50
2017-09-06T14:21:13.231Z,10.97
2017-09-06T14:23:41.586Z,12.83
2017-09-06T14:26:09.927Z,14.90
2017-09-06T14:28:38.323Z,12.03
2017-09-06T14:31:06.682Z,11.53
2017-09-06T14:33:35.061Z,13.00
2017-09-06T14:36:03.695Z,12.63
2017-09-06T14:38:32.372Z,12.87
2017-09-06T14:41:00.735Z,13.40
2017-09-06T14:43:29.128Z,15.13
2017-09-06T14:45:57.530Z,14.13
2017-09-06T14:48:26.157Z,12.13
2017-09-06T14:50:55.445Z,11.33
2017-09-06T14:53:24.588Z,9.37
2017-09-06T14:55:53.162Z,11.60
2017-09-06T14:58:21.736Z,15.80
2017-09-06T15:00:50.097Z,12.40
2017-09-06T15:03:18.739Z,19.70
2017-09-06T15:05:47.169Z,14.40
2017-09-06T15:08:15.674Z,15.67
2017-09-06T15:10:44.077Z,17.83
2017-09-06T15:13:12.507Z,12.50
2017-09-06T15:15:40.874Z,15.00
2017-09-06T15:18:09.226Z,17.63
2017-09-06T15:20:37.632Z,13.23
2017-09-06T15:23:06.009Z,17.10
2017-09-06T15:25:34.384Z,16.03
2017-09-06T15:28:02.932Z,15.87
2017-09-06T15:30:31.296Z,17.47
2017-09-06T15:32:59.694Z,12.17
2017-09-06T15:35:28.059Z,15.80
2017-09-06T15:37:56.422Z,14.13
2017-09-06T15:40:24.785Z,19.33
2017-09-06T15:42:53.150Z,17.27
2017-09-06T15:45:21.533Z,16.17
2017-09-06T15:47:49.891Z,15.37
2017-09-06T15:50:18.274Z,17.30
2017-09-06T15:52:46.827Z,25.00
2017-09-06T15:55:15.182Z,16.27
2017-09-06T15:57:43.587Z,18.90
2017-09-06T16:00:12.270Z,15.83
2017-09-06T16:02:40.723Z,18.87
2017-09-06T16:05:09.438Z,14.80
2017-09-06T16:07:37.820Z,12.43
2017-09-06T16:10:06.381Z,15.77
2017-09-06T16:12:34.387Z,19.90
2017-09-06T16:15:02.761Z,21.17
2017-09-06T16:17:31.114Z,24.97
2017-09-06T16:19:59.491Z,16.53
2017-09-06T16:22:27.860Z,27.00
2017-09-06T16:24:56.224Z,15.90
2017-09-06T16:27:25.357Z,19.70
2017-09-06T16:29:53.743Z,15.93
2017-09-06T16:32:22.104Z,18.40
2017-09-06T16:34:50.474Z,20.37
2017-09-06T16:37:18.843Z,18.93
2017-09-06T16:39:47.203Z,15.53
2017-09-06T16:42:16.343Z,20.20
2017-09-06T16:44:44.871Z,16.33
2017-09-06T16:47:13.243Z,13.97
2017-09-06T16:49:41.666Z,19.70
2017-09-06T16:52:10.306Z,25.57
2017-09-06T16:54:38.954Z,12.10
2017-09-06T16:57:08.288Z,17.33
2017-09-06T16:59:36.772Z,18.83
2017-09-06T17:02:05.145Z,21.63
2017-09-06T17:04:33.531Z,15.17
2017-09-06T17:07:01.898Z,16.63
2017-09-06T17:09:41.472Z,13.30
2017-09-06T17:12:09.846Z,22.23
2017-09-06T17:14:38.246Z,21.30
2017-09-06T17:17:06.611Z,16.13
2017-09-06T17:19:35.014Z,16.50
2017-09-06T17:22:03.380Z,14.03
2017-09-06T17:24:31.798Z,16.57
2017-09-06T17:27:00.147Z,12.20
2017-09-06T17:29:29.464Z,15.50
2017-09-06T17:31:57.837Z,16.13
2017-09-06T17:34:26.982Z,17.17
2017-09-06T17:36:55.009Z,17.00
2017-09-06T17:39:23.384Z,22.03
2017-09-06T17:41:51.752Z,14.47
2017-09-06T17:44:21.016Z,16.80
2017-09-06T17:46:49.406Z,17.13
2017-09-06T17:49:17.801Z,20.13
2017-09-06T17:51:46.162Z,18.93
2017-09-06T17:54:14.760Z,15.43
2017-09-06T17:56:43.111Z,12.53
2017-09-06T17:59:11.469Z,17.40
2017-09-06T18:01:39.837Z,18.40
2017-09-06T18:04:08.774Z,16.47
2017-09-06T18:06:37.952Z,23.20
2017-09-06T18:09:07.080Z,18.73
2017-09-06T18:11:35.442Z,17.13
2017-09-06T18:14:03.820Z,19.50
2017-09-06T18:16:32.196Z,16.57
2017-09-06T18:19:00.551Z,14.07
2017-09-06T18:21:28.985Z,22.87
2017-09-06T18:23:57.856Z,10.40
2017-09-06T18:26:26.308Z,11.97
2017-09-06T18:28:55.720Z,17.27
2017-09-06T18:31:24.117Z,14.33
2017-09-06T18:33:52.482Z,17.87
2017-09-06T18:36:20.852Z,26.90
2017-09-06T18:38:49.448Z,16.00
2017-09-06T18:41:17.833Z,17.37
2017-09-06T18:43:46.206Z,15.70
2017-09-06T18:46:14.585Z,18.87
2017-09-06T18:48:42.952Z,22.03
2017-09-06T18:51:11.308Z,23.53
2017-09-06T18:53:39.700Z,14.10
2017-09-06T18:56:08.365Z,17.93
2017-09-06T18:58:36.743Z,19.60
2017-09-06T19:01:05.116Z,11.57
2017-09-06T19:03:33.466Z,17.87
2017-09-06T19:06:01.966Z,18.30
2017-09-06T19:08:30.650Z,18.30
2017-09-06T19:10:59.028Z,16.47
2017-09-06T19:13:27.617Z,16.07
2017-09-06T19:15:55.981Z,16.43
2017-09-06T19:18:24.456Z,14.90
2017-09-06T19:20:52.940Z,19.33
2017-09-06T19:23:21.305Z,16.10
2017-09-06T19:25:49.688Z,14.00
2017-09-06T19:28:18.070Z,16.90
2017-09-06T19:30:46.253Z,20.20
2017-09-06T19:33:14.712Z,17.20
2017-09-06T19:35:43.086Z,19.20
2017-09-06T19:38:11.505Z,19.90
2017-09-06T19:40:39.890Z,18.73
2017-09-06T19:43:08.962Z,21.97
2017-09-06T19:45:37.335Z,22.73
2017-09-06T19:48:05.723Z,13.40
2017-09-06T19:50:34.098Z,16.20
2017-09-06T19:53:02.536Z,15.60
2017-09-06T19:55:31.119Z,19.00
2017-09-06T19:58:00.098Z,17.63
2017-09-06T20:00:28.468Z,15.87
2017-09-06T20:02:56.941Z,17.77
2017-09-06T20:05:25.549Z,17.17
2017-09-06T20:07:53.934Z,22.80
2017-09-06T20:10:22.337Z,21.47
2017-09-06T20:12:50.717Z,20.93
2017-09-06T20:15:19.080Z,18.27
2017-09-06T20:17:47.466Z,15.50
2017-09-06T20:20:16.213Z,15.73
2017-09-06T20:22:44.573Z,16.17
2017-09-06T20:25:12.970Z,17.87
2017-09-06T20:27:41.342Z,16.63
2017-09-06T20:30:09.718Z,13.73
2017-09-06T20:32:38.550Z,16.87
2017-09-06T20:35:06.936Z,12.23
2017-09-06T20:37:35.312Z,14.60
2017-09-06T20:40:03.694Z,12.80
2017-09-06T20:42:32.095Z,14.03
2017-09-06T20:45:00.611Z,13.00
2017-09-06T20:47:28.794Z,15.03
2017-09-06T20:49:57.165Z,11.73
2017-09-06T20:52:25.532Z,17.90
2017-09-06T20:54:54.087Z,8.90
2017-09-06T20:57:22.461Z,12.13
2017-09-06T20:59:50.845Z,13.63
2017-09-06T21:02:19.525Z,20.70
2017-09-06T21:04:47.976Z,11.43
2017-09-06T21:07:16.340Z,15.83
2017-09-06T21:09:44.715Z,13.60
2017-09-06T21:12:13.108Z,12.80
2017-09-06T21:14:41.548Z,13.70
2017-09-06T21:17:09.911Z,15.90
2017-09-06T21:19:38.153Z,15.07
2017-09-06T21:22:06.510Z,17.43
2017-09-06T21:24:34.987Z,18.87
2017-09-06T21:27:03.365Z,9.23
2017-09-06T21:29:32.079Z,14.43
2017-09-06T21:32:00.452Z,11.47
2017-09-06T21:34:28.830Z,14.20
2017-09-06T21:36:57.397Z,13.40
2017-09-06T21:39:26.010Z,16.47
2017-09-06T21:41:54.401Z,15.30
2017-09-06T21:44:22.758Z,14.30
2017-09-06T21:46:51.126Z,13.43
2017-09-06T21:49:19.509Z,21.70
2017-09-06T21:51:48.065Z,14.43
2017-09-06T21:54:16.456Z,12.00
2017-09-06T21:56:44.828Z,10.40
2017-09-06T21:59:13.198Z,16.97
2017-09-06T22:01:41.573Z,17.27
2017-09-06T22:04:09.951Z,17.30
2017-09-06T22:06:38.304Z,15.17
2017-09-06T22:09:06.687Z,15.37
2017-09-06T22:11:35.177Z,16.60
2017-09-06T22:14:03.568Z,14.43
2017-09-06T22:16:31.995Z,11.47
2017-09-06T22:19:00.414Z,15.77
2017-09-06T22:21:28.988Z,20.33
2017-09-06T22:23:57.568Z,14.17
2017-09-06T22:26:26.511Z,18.27
2017-09-06T22:28:55.059Z,23.23
2017-09-06T22:31:23.450Z,16.30
2017-09-06T22:33:51.814Z,20.87
2017-09-06T22:36:20.175Z,13.03
2017-09-06T22:38:48.641Z,19.30
2017-09-06T22:41:17.018Z,14.40
2017-09-06T22:43:45.701Z,22.10
2017-09-06T22:46:14.382Z,17.63
2017-09-06T22:48:42.749Z,23.40
2017-09-06T22:51:11.110Z,19.60
2017-09-06T22:56:30.763Z,15.60
2017-09-06T22:58:59.133Z,22.60
2017-09-06T23:01:27.490Z,20.53
2017-09-06T23:03:56.627Z,15.43
2017-09-06T23:06:24.992Z,20.90
2017-09-06T23:08:53.352Z,17.37
2017-09-06T23:11:22.402Z,17.00
2017-09-06T23:13:50.761Z,19.40
2017-09-06T23:16:19.110Z,19.93
2017-09-06T23:18:47.540Z,17.87
2017-09-06T23:21:15.894Z,23.37
2017-09-06T23:23:44.247Z,19.13
2017-09-06T23:26:12.611Z,21.67
2017-09-06T23:28:40.975Z,18.90
2017-09-06T23:31:09.520Z,18.67
2017-09-06T23:33:37.895Z,25.93
2017-09-06T23:36:06.276Z,16.17
2017-09-06T23:38:34.650Z,18.53
2017-09-06T23:41:03.332Z,19.50
2017-09-06T23:43:31.681Z,20.17
2017-09-06T23:46:00.815Z,18.90
2017-09-06T23:48:29.158Z,23.40
2017-09-06T23:50:57.603Z,18.63
2017-09-06T23:53:26.139Z,26.30
2017-09-06T23:55:54.728Z,21.80
2017-09-06T23:58:23.194Z,18.73
